Grande Mariner — WCY6594 — position and weather

sailwx.info

Track history (hours):
 
Tides and Currents Weather Stations Pressure Air Temp Water Temp Dewpoint Dewpoint Depression Visibility Wind Speed Wind Dir Waves Ship Positions

Grande Mariner

Owner: AMERICAN CANADIAN CARIBBEAN LINE INC, WARREN, RI. More information available from US FCC via Universal Licensing System and Coast Guard Vessel Documentation Center.

Last reported at 2017-Apr-28 17:30 UTC. Time now 2017-Apr-28 17:51 UTC.
Position N 34°43' W 076°40'.

Length 56 m; draft 2 m.

Type: Passenger vessel. MMSI: 369024000.

Date/timePositionNaut miles runAvg speedWind from/ knotsBaromVisibWave heightAir tempDewpointWater temp
2017-Apr-28 17:30N 34°43' W 076°40'0 0.0
2017-Apr-28 17:00N 34°43' W 076°40'0 0.0
2017-Apr-28 16:30N 34°43' W 076°40'0 0.0
2017-Apr-28 16:00N 34°43' W 076°40'0 0.0
2017-Apr-28 15:30N 34°43' W 076°40'0 0.0
2017-Apr-28 15:00N 34°43' W 076°40'0 0.0
2017-Apr-28 14:00N 34°43' W 076°40'0 0.0
2017-Apr-28 13:30N 34°43' W 076°40'0 0.0
2017-Apr-28 13:00N 34°43' W 076°40'0 0.0
2017-Apr-28 12:30N 34°43' W 076°40'0 0.0
2017-Apr-28 12:00N 34°43' W 076°40'0 0.0
2017-Apr-28 11:30N 34°43' W 076°40'0 0.0
2017-Apr-28 11:00N 34°43' W 076°40'0 0.0
2017-Apr-28 10:30N 34°43' W 076°40'0 0.0
2017-Apr-28 10:00N 34°43' W 076°40'0 0.0
2017-Apr-28 09:30N 34°43' W 076°40'0 0.0
2017-Apr-28 09:00N 34°43' W 076°40'0 0.0
2017-Apr-28 08:30N 34°43' W 076°40'0 0.0
2017-Apr-28 08:00N 34°43' W 076°40'0 0.0
2017-Apr-28 07:30N 34°43' W 076°40'0 0.0
2017-Apr-28 07:00N 34°43' W 076°40'0 0.0
2017-Apr-28 06:30N 34°43' W 076°40'0 0.0
2017-Apr-28 06:00N 34°43' W 076°40'0 0.0
2017-Apr-28 05:30N 34°43' W 076°40'0 0.0
2017-Apr-28 05:00N 34°43' W 076°40'0 0.0
2017-Apr-28 04:30N 34°43' W 076°40'0 0.0
2017-Apr-28 04:00N 34°43' W 076°40'0 0.0
2017-Apr-28 03:30N 34°43' W 076°40'0 0.0
2017-Apr-28 03:00N 34°43' W 076°40'0 0.0
2017-Apr-28 02:30N 34°43' W 076°40'2 3.1
2017-Apr-28 02:00N 34°43' W 076°42'3 6.8
2017-Apr-28 01:30N 34°47' W 076°41'3 6.1
2017-Apr-28 01:00N 34°50' W 076°41'3 6.3
2017-Apr-28 00:30N 34°53' W 076°41'4 7.4
2017-Apr-28 00:00N 34°56' W 076°39'110 3.5
2017-Apr-26 16:15N 36°43' W 076°05'7 6.1
2017-Apr-26 15:06N 36°43' W 076°14'0 2.5
2017-Apr-26 14:59N 36°43' W 076°15'0 0.6
2017-Apr-26 14:27N 36°43' W 076°15'2 2.1
2017-Apr-26 13:30N 36°44' W 076°17'3 6.3
2017-Apr-26 13:00N 36°47' W 076°18'4 7.2
2017-Apr-26 12:31N 36°51' W 076°18'140 9.6
2017-Apr-25 21:50N 39°11' W 076°27'3 9.9
2017-Apr-25 21:30N 39°12' W 076°31'5 8.6
2017-Apr-25 20:57N 39°16' W 076°34'2 4.5
2017-Apr-25 20:30N 39°17' W 076°36'0 0.0
2017-Apr-25 20:00N 39°17' W 076°36'0 0.0
2017-Apr-25 19:30N 39°17' W 076°36'0 0.0
2017-Apr-25 19:00N 39°17' W 076°36'0 0.0
2017-Apr-25 18:30N 39°17' W 076°36'0 0.0
2017-Apr-25 18:00N 39°17' W 076°36'0 0.0
2017-Apr-25 17:30N 39°17' W 076°36'0 0.0
2017-Apr-25 17:00N 39°17' W 076°36'0 0.0
2017-Apr-25 16:30N 39°17' W 076°36'0 0.0
2017-Apr-25 16:00N 39°17' W 076°36'0 0.0
2017-Apr-25 15:30N 39°17' W 076°36'0 0.0
2017-Apr-25 15:00N 39°17' W 076°36'0 0.0
2017-Apr-25 14:30N 39°17' W 076°36'0 0.0
2017-Apr-25 13:30N 39°17' W 076°36'0 0.0
2017-Apr-25 13:00N 39°17' W 076°36'0 0.0
2017-Apr-25 12:30N 39°17' W 076°36'0 0.0
2017-Apr-25 12:00N 39°17' W 076°36'0 0.0
2017-Apr-25 11:30N 39°17' W 076°36'0 0.0
2017-Apr-25 11:00N 39°17' W 076°36'0 0.0
2017-Apr-25 10:30N 39°17' W 076°36'0 0.0
2017-Apr-25 10:00N 39°17' W 076°36'0 0.0
2017-Apr-25 09:30N 39°17' W 076°36'0 0.0
2017-Apr-25 09:00N 39°17' W 076°36'0 0.0
2017-Apr-25 08:30N 39°17' W 076°36'0 0.0
2017-Apr-25 08:00N 39°17' W 076°36'0 0.0
2017-Apr-25 07:30N 39°17' W 076°36'0 0.0
2017-Apr-25 07:00N 39°17' W 076°36'0 0.0
2017-Apr-25 06:30N 39°17' W 076°36'0 0.0
2017-Apr-25 06:00N 39°17' W 076°36'0 0.0
2017-Apr-25 05:30N 39°17' W 076°36'0 0.0
2017-Apr-25 05:00N 39°17' W 076°36'0 0.0
2017-Apr-25 04:30N 39°17' W 076°36'0 0.0
2017-Apr-25 04:00N 39°17' W 076°36'0 0.2
2017-Apr-25 03:30N 39°17' W 076°36'0 0.2
2017-Apr-25 03:00N 39°17' W 076°36'0 0.0
2017-Apr-25 02:30N 39°17' W 076°36'0 0.0
2017-Apr-25 02:00N 39°17' W 076°36'0 0.0
2017-Apr-25 01:30N 39°17' W 076°36'0 0.0
2017-Apr-25 01:00N 39°17' W 076°36'0 0.0
2017-Apr-25 00:30N 39°17' W 076°36'0 0.0
2017-Apr-25 00:00N 39°17' W 076°36'0 0.0
2017-Apr-24 23:30N 39°17' W 076°36'0 0.0
2017-Apr-24 23:00N 39°17' W 076°36'0 0.0
2017-Apr-24 22:30N 39°17' W 076°36'0 0.0
2017-Apr-24 22:00N 39°17' W 076°36'0 0.0
2017-Apr-24 21:30N 39°17' W 076°36'0 0.0
2017-Apr-24 21:00N 39°17' W 076°36'0 0.0
2017-Apr-24 20:30N 39°17' W 076°36'0 0.0
2017-Apr-24 20:00N 39°17' W 076°36'0 0.0
2017-Apr-24 19:30N 39°17' W 076°36'0 0.0
2017-Apr-24 19:00N 39°17' W 076°36'0 0.0
2017-Apr-24 18:30N 39°17' W 076°36'0 0.0
2017-Apr-24 18:00N 39°17' W 076°36'0 0.0
2017-Apr-24 17:30N 39°17' W 076°36'0 0.0
2017-Apr-24 17:00N 39°17' W 076°36'0 0.0
2017-Apr-24 16:30N 39°17' W 076°36'0 0.0
2017-Apr-24 16:00N 39°17' W 076°36'0 0.0
2017-Apr-24 15:30N 39°17' W 076°36'1 1.6
2017-Apr-24 15:00N 39°17' W 076°36'4 7.0
2017-Apr-24 14:30N 39°14' W 076°33'10 8.2
2017-Apr-24 13:15N 39°14' W 076°19'310.3
2017-Apr-24 12:56N 39°16' W 076°16'4 9.7
2017-Apr-24 12:29N 39°19' W 076°12'510.6
2017-Apr-24 12:00N 39°22' W 076°07'510.0
2017-Apr-24 11:30N 39°25' W 076°02'5 9.5
2017-Apr-24 11:00N 39°28' W 075°58'4 8.9
2017-Apr-24 10:30N 39°31' W 075°53'4 7.3
2017-Apr-24 10:00N 39°32' W 075°48'4 8.0
2017-Apr-24 09:30N 39°33' W 075°43'4 8.1
2017-Apr-24 09:00N 39°33' W 075°38'4 8.3
2017-Apr-24 08:31N 39°33' W 075°33'4 8.1
2017-Apr-24 08:00N 39°29' W 075°34'4 7.8
2017-Apr-24 07:30N 39°26' W 075°32'4 7.7
2017-Apr-24 07:00N 39°23' W 075°29'4 7.8
2017-Apr-24 06:30N 39°20' W 075°25'4 7.5
2017-Apr-24 06:00N 39°17' W 075°22'4 7.9
2017-Apr-24 05:30N 39°14' W 075°19'5 8.0
2017-Apr-24 04:51N 39°10' W 075°15'6 8.6
2017-Apr-24 04:09N 39°05' W 075°11'1 8.5
2017-Apr-24 04:00N 39°04' W 075°10'4 8.7
2017-Apr-24 03:29N 38°60' W 075°08'8 8.6
2017-Apr-24 02:32N 38°52' W 075°04'61 9.2
2017-Apr-23 19:52N 39°35' W 074°08'410.9
2017-Apr-23 19:29N 39°39' W 074°06'611.7
2017-Apr-23 19:00N 39°44' W 074°03'4510.9
2017-Apr-23 14:51N 40°29' W 073°55'412.6
2017-Apr-23 14:30N 40°31' W 073°60'1010.3
2017-Apr-23 13:30N 40°41' W 074°01'611.0
2017-Apr-23 12:59N 40°46' W 073°57'510.2
2017-Apr-23 12:30N 40°48' W 073°51'5410.4
2017-Apr-23 07:18N 41°07' W 072°44'310.1
2017-Apr-23 07:00N 41°08' W 072°40'8 9.5
2017-Apr-23 06:13N 41°10' W 072°30'2 9.3
2017-Apr-23 06:00N 41°11' W 072°27'4 8.6
2017-Apr-23 05:30N 41°11' W 072°22'4 8.2
2017-Apr-23 05:00N 41°12' W 072°17'5 8.5
2017-Apr-23 04:26N 41°13' W 072°10'48 8.9
2017-Apr-22 23:02N 41°41' W 071°18'010.4
2017-Apr-22 23:00N 41°42' W 071°18'  
Track history (hours):
 
Tides and Currents Weather Stations Pressure Air Temp Water Temp Dewpoint Dewpoint Depression Visibility Wind Speed Wind Dir Waves Ship Positions

Grande Mariner

Owner: AMERICAN CANADIAN CARIBBEAN LINE INC, WARREN, RI. More information available from US FCC via Universal Licensing System and Coast Guard Vessel Documentation Center.

Last reported at 2017-Apr-28 17:30 UTC. Time now 2017-Apr-28 17:51 UTC.
Position N 34°43' W 076°40'.

Length 56 m; draft 2 m.

Type: Passenger vessel. MMSI: 369024000.

Date/timePositionNaut miles runAvg speedWind from/ knotsBaromVisibWave heightAir tempDewpointWater temp
2017-Apr-28 17:30N 34°43' W 076°40'0 0.0
2017-Apr-28 17:00N 34°43' W 076°40'0 0.0
2017-Apr-28 16:30N 34°43' W 076°40'0 0.0
2017-Apr-28 16:00N 34°43' W 076°40'0 0.0
2017-Apr-28 15:30N 34°43' W 076°40'0 0.0
2017-Apr-28 15:00N 34°43' W 076°40'0 0.0
2017-Apr-28 14:00N 34°43' W 076°40'0 0.0
2017-Apr-28 13:30N 34°43' W 076°40'0 0.0
2017-Apr-28 13:00N 34°43' W 076°40'0 0.0
2017-Apr-28 12:30N 34°43' W 076°40'0 0.0
2017-Apr-28 12:00N 34°43' W 076°40'0 0.0
2017-Apr-28 11:30N 34°43' W 076°40'0 0.0
2017-Apr-28 11:00N 34°43' W 076°40'0 0.0
2017-Apr-28 10:30N 34°43' W 076°40'0 0.0
2017-Apr-28 10:00N 34°43' W 076°40'0 0.0
2017-Apr-28 09:30N 34°43' W 076°40'0 0.0
2017-Apr-28 09:00N 34°43' W 076°40'0 0.0
2017-Apr-28 08:30N 34°43' W 076°40'0 0.0
2017-Apr-28 08:00N 34°43' W 076°40'0 0.0
2017-Apr-28 07:30N 34°43' W 076°40'0 0.0
2017-Apr-28 07:00N 34°43' W 076°40'0 0.0
2017-Apr-28 06:30N 34°43' W 076°40'0 0.0
2017-Apr-28 06:00N 34°43' W 076°40'0 0.0
2017-Apr-28 05:30N 34°43' W 076°40'0 0.0
2017-Apr-28 05:00N 34°43' W 076°40'0 0.0
2017-Apr-28 04:30N 34°43' W 076°40'0 0.0
2017-Apr-28 04:00N 34°43' W 076°40'0 0.0
2017-Apr-28 03:30N 34°43' W 076°40'0 0.0
2017-Apr-28 03:00N 34°43' W 076°40'0 0.0
2017-Apr-28 02:30N 34°43' W 076°40'2 3.1
2017-Apr-28 02:00N 34°43' W 076°42'3 6.8
2017-Apr-28 01:30N 34°47' W 076°41'3 6.1
2017-Apr-28 01:00N 34°50' W 076°41'3 6.3
2017-Apr-28 00:30N 34°53' W 076°41'4 7.4
2017-Apr-28 00:00N 34°56' W 076°39'110 3.5
2017-Apr-26 16:15N 36°43' W 076°05'7 6.1
2017-Apr-26 15:06N 36°43' W 076°14'0 2.5
2017-Apr-26 14:59N 36°43' W 076°15'0 0.6
2017-Apr-26 14:27N 36°43' W 076°15'2 2.1
2017-Apr-26 13:30N 36°44' W 076°17'3 6.3
2017-Apr-26 13:00N 36°47' W 076°18'4 7.2
2017-Apr-26 12:31N 36°51' W 076°18'140 9.6
2017-Apr-25 21:50N 39°11' W 076°27'3 9.9
2017-Apr-25 21:30N 39°12' W 076°31'5 8.6
2017-Apr-25 20:57N 39°16' W 076°34'2 4.5
2017-Apr-25 20:30N 39°17' W 076°36'0 0.0
2017-Apr-25 20:00N 39°17' W 076°36'0 0.0
2017-Apr-25 19:30N 39°17' W 076°36'0 0.0
2017-Apr-25 19:00N 39°17' W 076°36'0 0.0
2017-Apr-25 18:30N 39°17' W 076°36'0 0.0
2017-Apr-25 18:00N 39°17' W 076°36'0 0.0
2017-Apr-25 17:30N 39°17' W 076°36'0 0.0
2017-Apr-25 17:00N 39°17' W 076°36'0 0.0
2017-Apr-25 16:30N 39°17' W 076°36'0 0.0
2017-Apr-25 16:00N 39°17' W 076°36'0 0.0
2017-Apr-25 15:30N 39°17' W 076°36'0 0.0
2017-Apr-25 15:00N 39°17' W 076°36'0 0.0
2017-Apr-25 14:30N 39°17' W 076°36'0 0.0
2017-Apr-25 13:30N 39°17' W 076°36'0 0.0
2017-Apr-25 13:00N 39°17' W 076°36'0 0.0
2017-Apr-25 12:30N 39°17' W 076°36'0 0.0
2017-Apr-25 12:00N 39°17' W 076°36'0 0.0
2017-Apr-25 11:30N 39°17' W 076°36'0 0.0
2017-Apr-25 11:00N 39°17' W 076°36'0 0.0
2017-Apr-25 10:30N 39°17' W 076°36'0 0.0
2017-Apr-25 10:00N 39°17' W 076°36'0 0.0
2017-Apr-25 09:30N 39°17' W 076°36'0 0.0
2017-Apr-25 09:00N 39°17' W 076°36'0 0.0
2017-Apr-25 08:30N 39°17' W 076°36'0 0.0
2017-Apr-25 08:00N 39°17' W 076°36'0 0.0
2017-Apr-25 07:30N 39°17' W 076°36'0 0.0
2017-Apr-25 07:00N 39°17' W 076°36'0 0.0
2017-Apr-25 06:30N 39°17' W 076°36'0 0.0
2017-Apr-25 06:00N 39°17' W 076°36'0 0.0
2017-Apr-25 05:30N 39°17' W 076°36'0 0.0
2017-Apr-25 05:00N 39°17' W 076°36'0 0.0
2017-Apr-25 04:30N 39°17' W 076°36'0 0.0
2017-Apr-25 04:00N 39°17' W 076°36'0 0.2
2017-Apr-25 03:30N 39°17' W 076°36'0 0.2
2017-Apr-25 03:00N 39°17' W 076°36'0 0.0
2017-Apr-25 02:30N 39°17' W 076°36'0 0.0
2017-Apr-25 02:00N 39°17' W 076°36'0 0.0
2017-Apr-25 01:30N 39°17' W 076°36'0 0.0
2017-Apr-25 01:00N 39°17' W 076°36'0 0.0
2017-Apr-25 00:30N 39°17' W 076°36'0 0.0
2017-Apr-25 00:00N 39°17' W 076°36'0 0.0
2017-Apr-24 23:30N 39°17' W 076°36'0 0.0
2017-Apr-24 23:00N 39°17' W 076°36'0 0.0
2017-Apr-24 22:30N 39°17' W 076°36'0 0.0
2017-Apr-24 22:00N 39°17' W 076°36'0 0.0
2017-Apr-24 21:30N 39°17' W 076°36'0 0.0
2017-Apr-24 21:00N 39°17' W 076°36'0 0.0
2017-Apr-24 20:30N 39°17' W 076°36'0 0.0
2017-Apr-24 20:00N 39°17' W 076°36'0 0.0
2017-Apr-24 19:30N 39°17' W 076°36'0 0.0
2017-Apr-24 19:00N 39°17' W 076°36'0 0.0
2017-Apr-24 18:30N 39°17' W 076°36'0 0.0
2017-Apr-24 18:00N 39°17' W 076°36'0 0.0
2017-Apr-24 17:30N 39°17' W 076°36'0 0.0
2017-Apr-24 17:00N 39°17' W 076°36'0 0.0
2017-Apr-24 16:30N 39°17' W 076°36'0 0.0
2017-Apr-24 16:00N 39°17' W 076°36'0 0.0
2017-Apr-24 15:30N 39°17' W 076°36'1 1.6
2017-Apr-24 15:00N 39°17' W 076°36'4 7.0
2017-Apr-24 14:30N 39°14' W 076°33'10 8.2
2017-Apr-24 13:15N 39°14' W 076°19'310.3
2017-Apr-24 12:56N 39°16' W 076°16'4 9.7
2017-Apr-24 12:29N 39°19' W 076°12'510.6
2017-Apr-24 12:00N 39°22' W 076°07'510.0
2017-Apr-24 11:30N 39°25' W 076°02'5 9.5
2017-Apr-24 11:00N 39°28' W 075°58'4 8.9
2017-Apr-24 10:30N 39°31' W 075°53'4 7.3
2017-Apr-24 10:00N 39°32' W 075°48'4 8.0
2017-Apr-24 09:30N 39°33' W 075°43'4 8.1
2017-Apr-24 09:00N 39°33' W 075°38'4 8.3
2017-Apr-24 08:31N 39°33' W 075°33'4 8.1
2017-Apr-24 08:00N 39°29' W 075°34'4 7.8
2017-Apr-24 07:30N 39°26' W 075°32'4 7.7
2017-Apr-24 07:00N 39°23' W 075°29'4 7.8
2017-Apr-24 06:30N 39°20' W 075°25'4 7.5
2017-Apr-24 06:00N 39°17' W 075°22'4 7.9
2017-Apr-24 05:30N 39°14' W 075°19'5 8.0
2017-Apr-24 04:51N 39°10' W 075°15'6 8.6
2017-Apr-24 04:09N 39°05' W 075°11'1 8.5
2017-Apr-24 04:00N 39°04' W 075°10'4 8.7
2017-Apr-24 03:29N 38°60' W 075°08'8 8.6
2017-Apr-24 02:32N 38°52' W 075°04'61 9.2
2017-Apr-23 19:52N 39°35' W 074°08'410.9
2017-Apr-23 19:29N 39°39' W 074°06'611.7
2017-Apr-23 19:00N 39°44' W 074°03'4510.9
2017-Apr-23 14:51N 40°29' W 073°55'412.6
2017-Apr-23 14:30N 40°31' W 073°60'1010.3
2017-Apr-23 13:30N 40°41' W 074°01'611.0
2017-Apr-23 12:59N 40°46' W 073°57'510.2
2017-Apr-23 12:30N 40°48' W 073°51'5410.4
2017-Apr-23 07:18N 41°07' W 072°44'310.1
2017-Apr-23 07:00N 41°08' W 072°40'8 9.5
2017-Apr-23 06:13N 41°10' W 072°30'2 9.3
2017-Apr-23 06:00N 41°11' W 072°27'4 8.6
2017-Apr-23 05:30N 41°11' W 072°22'4 8.2
2017-Apr-23 05:00N 41°12' W 072°17'5 8.5
2017-Apr-23 04:26N 41°13' W 072°10'48 8.9
2017-Apr-22 23:02N 41°41' W 071°18'010.4
2017-Apr-22 23:00N 41°42' W 071°18'  

Dump ship's entire track history